sensor_id;sensor_type;location;lat;lon;timestamp;pressure;altitude;pressure_sealevel;temperature;humidity
78444;BME280;67739;52.986;8.894;2023-08-21T00:02:19;102340.44;;;18.39;67.63
78444;BME280;67739;52.986;8.894;2023-08-21T00:04:44;102336.22;;;18.33;67.54
78444;BME280;67739;52.986;8.894;2023-08-21T00:07:09;102339.22;;;18.29;68.11
78444;BME280;67739;52.986;8.894;2023-08-21T00:09:36;102341.28;;;18.24;67.94
78444;BME280;67739;52.986;8.894;2023-08-21T00:12:02;102340.59;;;18.20;68.14
78444;BME280;67739;52.986;8.894;2023-08-21T00:14:27;102340.88;;;18.16;68.15
78444;BME280;67739;52.986;8.894;2023-08-21T00:16:53;102350.13;;;18.12;67.65
78444;BME280;67739;52.986;8.894;2023-08-21T00:19:18;102354.06;;;18.06;67.99
78444;BME280;67739;52.986;8.894;2023-08-21T00:21:44;102350.66;;;18.02;68.73
78444;BME280;67739;52.986;8.894;2023-08-21T00:24:09;102351.78;;;17.98;68.05
78444;BME280;67739;52.986;8.894;2023-08-21T00:26:34;102348.41;;;17.93;68.23
78444;BME280;67739;52.986;8.894;2023-08-21T00:28:59;102342.25;;;17.90;68.29
78444;BME280;67739;52.986;8.894;2023-08-21T00:31:25;102352.44;;;17.86;68.32
78444;BME280;67739;52.986;8.894;2023-08-21T00:33:50;102346.28;;;17.83;68.49
78444;BME280;67739;52.986;8.894;2023-08-21T00:36:16;102341.97;;;17.79;68.60
78444;BME280;67739;52.986;8.894;2023-08-21T00:38:41;102337.66;;;17.75;68.91
78444;BME280;67739;52.986;8.894;2023-08-21T00:41:06;102338.81;;;17.71;68.69
78444;BME280;67739;52.986;8.894;2023-08-21T00:43:32;102340.78;;;17.67;68.69
78444;BME280;67739;52.986;8.894;2023-08-21T00:45:57;102345.50;;;17.63;68.63
78444;BME280;67739;52.986;8.894;2023-08-21T00:48:23;102341.06;;;17.61;68.69
78444;BME280;67739;52.986;8.894;2023-08-21T00:50:49;102344.94;;;17.57;68.75
78444;BME280;67739;52.986;8.894;2023-08-21T00:53:15;102342.44;;;17.52;68.95
78444;BME280;67739;52.986;8.894;2023-08-21T00:55:41;102352.59;;;17.49;69.08
78444;BME280;67739;52.986;8.894;2023-08-21T00:58:09;102343.75;;;17.45;69.23
78444;BME280;67739;52.986;8.894;2023-08-21T01:00:35;102342.06;;;17.43;68.97
78444;BME280;67739;52.986;8.894;2023-08-21T01:03:00;102355.84;;;17.38;69.37
78444;BME280;67739;52.986;8.894;2023-08-21T01:05:26;102351.53;;;17.34;69.16
78444;BME280;67739;52.986;8.894;2023-08-21T01:08:06;102351.72;;;17.31;69.32
78444;BME280;67739;52.986;8.894;2023-08-21T01:10:52;102351.00;;;17.27;69.27
78444;BME280;67739;52.986;8.894;2023-08-21T01:13:34;102360.16;;;17.25;69.29
78444;BME280;67739;52.986;8.894;2023-08-21T01:16:05;102349.53;;;17.20;69.51
78444;BME280;67739;52.986;8.894;2023-08-21T01:18:33;102355.22;;;17.16;69.53
78444;BME280;67739;52.986;8.894;2023-08-21T01:20:59;102351.78;;;17.12;69.46
78444;BME280;67739;52.986;8.894;2023-08-21T01:23:31;102353.69;;;17.10;69.42
78444;BME280;67739;52.986;8.894;2023-08-21T01:25:56;102354.78;;;17.06;69.81
78444;BME280;67739;52.986;8.894;2023-08-21T01:28:21;102355.81;;;17.04;69.53
78444;BME280;67739;52.986;8.894;2023-08-21T01:30:50;102356.94;;;17.00;69.62
78444;BME280;67739;52.986;8.894;2023-08-21T01:33:17;102356.22;;;16.96;69.74
78444;BME280;67739;52.986;8.894;2023-08-21T01:35:44;102346.47;;;16.92;69.50
78444;BME280;67739;52.986;8.894;2023-08-21T01:38:10;102346.63;;;16.89;69.85
78444;BME280;67739;52.986;8.894;2023-08-21T01:40:35;102346.78;;;16.86;69.72
78444;BME280;67739;52.986;8.894;2023-08-21T01:43:00;102342.41;;;16.83;69.96
78444;BME280;67739;52.986;8.894;2023-08-21T01:45:26;102357.94;;;16.80;69.97
78444;BME280;67739;52.986;8.894;2023-08-21T01:47:51;102358.06;;;16.77;69.86
78444;BME280;67739;52.986;8.894;2023-08-21T01:50:17;102351.94;;;16.73;70.20
78444;BME280;67739;52.986;8.894;2023-08-21T01:52:42;102354.81;;;16.70;70.14
78444;BME280;67739;52.986;8.894;2023-08-21T01:55:07;102351.34;;;16.67;70.27
78444;BME280;67739;52.986;8.894;2023-08-21T01:57:33;102355.97;;;16.65;70.14
78444;BME280;67739;52.986;8.894;2023-08-21T01:59:58;102353.38;;;16.61;70.27
78444;BME280;67739;52.986;8.894;2023-08-21T02:02:24;102359.91;;;16.57;70.17
78444;BME280;67739;52.986;8.894;2023-08-21T02:04:49;102355.50;;;16.55;69.95
78444;BME280;67739;52.986;8.894;2023-08-21T02:07:14;102352.94;;;16.52;70.19
78444;BME280;67739;52.986;8.894;2023-08-21T02:09:40;102351.25;;;16.49;70.26
78444;BME280;67739;52.986;8.894;2023-08-21T02:12:05;102349.56;;;16.47;70.35
78444;BME280;67739;52.986;8.894;2023-08-21T02:14:31;102350.63;;;16.44;70.61
78444;BME280;67739;52.986;8.894;2023-08-21T02:16:56;102349.88;;;16.41;70.80
78444;BME280;67739;52.986;8.894;2023-08-21T02:19:22;102350.91;;;16.38;70.62
78444;BME280;67739;52.986;8.894;2023-08-21T02:21:47;102339.31;;;16.35;70.48
78444;BME280;67739;52.986;8.894;2023-08-21T02:24:12;102352.06;;;16.33;70.51
78444;BME280;67739;52.986;8.894;2023-08-21T02:26:38;102342.28;;;16.30;70.93
78444;BME280;67739;52.986;8.894;2023-08-21T02:29:03;102354.13;;;16.27;70.72
78444;BME280;67739;52.986;8.894;2023-08-21T02:31:29;102350.59;;;16.25;70.80
78444;BME280;67739;52.986;8.894;2023-08-21T02:33:54;102342.63;;;16.22;71.18
78444;BME280;67739;52.986;8.894;2023-08-21T02:36:19;102346.34;;;16.20;70.95
78444;BME280;67739;52.986;8.894;2023-08-21T02:38:44;102360.00;;;16.17;71.21
78444;BME280;67739;52.986;8.894;2023-08-21T02:41:10;102361.06;;;16.14;71.26
78444;BME280;67739;52.986;8.894;2023-08-21T02:43:35;102359.38;;;16.12;71.42
78444;BME280;67739;52.986;8.894;2023-08-21T02:46:00;102369.38;;;16.10;71.49
78444;BME280;67739;52.986;8.894;2023-08-21T02:48:26;102365.94;;;16.06;71.18
78444;BME280;67739;52.986;8.894;2023-08-21T02:50:51;102368.72;;;16.05;71.52
78444;BME280;67739;52.986;8.894;2023-08-21T02:53:16;102368.78;;;16.03;71.53
78444;BME280;67739;52.986;8.894;2023-08-21T02:55:42;102365.34;;;16.00;71.50
78444;BME280;67739;52.986;8.894;2023-08-21T02:58:07;102360.06;;;15.97;71.35
78444;BME280;67739;52.986;8.894;2023-08-21T03:00:32;102352.03;;;15.95;71.69
78444;BME280;67739;52.986;8.894;2023-08-21T03:02:58;102361.16;;;15.93;71.52
78444;BME280;67739;52.986;8.894;2023-08-21T03:05:23;102351.34;;;15.90;71.59
78444;BME280;67739;52.986;8.894;2023-08-21T03:07:48;102361.34;;;15.88;71.90
78444;BME280;67739;52.986;8.894;2023-08-21T03:10:14;102365.09;;;15.85;71.79
78444;BME280;67739;52.986;8.894;2023-08-21T03:12:39;102356.25;;;15.82;71.60
78444;BME280;67739;52.986;8.894;2023-08-21T03:15:05;102362.59;;;15.81;72.05
78444;BME280;67739;52.986;8.894;2023-08-21T03:17:31;102367.25;;;15.77;71.88
78444;BME280;67739;52.986;8.894;2023-08-21T03:19:56;102373.69;;;15.75;71.93
78444;BME280;67739;52.986;8.894;2023-08-21T03:22:21;102370.09;;;15.74;71.80
78444;BME280;67739;52.986;8.894;2023-08-21T03:24:47;102361.25;;;15.71;71.86
78444;BME280;67739;52.986;8.894;2023-08-21T03:27:15;102370.38;;;15.68;72.21
78444;BME280;67739;52.986;8.894;2023-08-21T03:29:40;102373.16;;;15.67;72.13
78444;BME280;67739;52.986;8.894;2023-08-21T03:32:06;102369.63;;;15.65;71.88
78444;BME280;67739;52.986;8.894;2023-08-21T03:34:31;102361.66;;;15.62;72.28
78444;BME280;67739;52.986;8.894;2023-08-21T03:36:56;102375.25;;;15.60;71.91
78444;BME280;67739;52.986;8.894;2023-08-21T03:39:21;102370.00;;;15.57;72.07
78444;BME280;67739;52.986;8.894;2023-08-21T03:41:47;102371.88;;;15.55;72.20
78444;BME280;67739;52.986;8.894;2023-08-21T03:44:12;102373.72;;;15.53;72.11
78444;BME280;67739;52.986;8.894;2023-08-21T03:46:37;102376.50;;;15.51;72.21
78444;BME280;67739;52.986;8.894;2023-08-21T03:49:03;102377.50;;;15.49;72.35
78444;BME280;67739;52.986;8.894;2023-08-21T03:51:28;102373.09;;;15.46;72.05
78444;BME280;67739;52.986;8.894;2023-08-21T03:53:53;102367.75;;;15.45;72.28
78444;BME280;67739;52.986;8.894;2023-08-21T03:56:19;102370.56;;;15.43;72.23
78444;BME280;67739;52.986;8.894;2023-08-21T03:58:44;102378.81;;;15.40;72.54
78444;BME280;67739;52.986;8.894;2023-08-21T04:01:10;102373.44;;;15.39;72.50
78444;BME280;67739;52.986;8.894;2023-08-21T04:03:35;102383.44;;;15.37;72.46
78444;BME280;67739;52.986;8.894;2023-08-21T04:06:01;102379.00;;;15.36;72.20
78444;BME280;67739;52.986;8.894;2023-08-21T04:08:26;102380.00;;;15.33;72.29
78444;BME280;67739;52.986;8.894;2023-08-21T04:10:52;102379.19;;;15.31;72.67
78444;BME280;67739;52.986;8.894;2023-08-21T04:13:24;102380.13;;;15.30;72.30
78444;BME280;67739;52.986;8.894;2023-08-21T04:15:49;102377.50;;;15.29;72.59
78444;BME280;67739;52.986;8.894;2023-08-21T04:18:16;102388.38;;;15.27;72.35
78444;BME280;67739;52.986;8.894;2023-08-21T04:20:41;102385.81;;;15.24;72.74
78444;BME280;67739;52.986;8.894;2023-08-21T04:23:06;102388.56;;;15.23;72.89
78444;BME280;67739;52.986;8.894;2023-08-21T04:25:32;102389.50;;;15.21;72.77
78444;BME280;67739;52.986;8.894;2023-08-21T04:27:57;102404.91;;;15.19;72.72
78444;BME280;67739;52.986;8.894;2023-08-21T04:30:22;102397.75;;;15.18;73.02
78444;BME280;67739;52.986;8.894;2023-08-21T04:32:48;102394.22;;;15.16;73.04
78444;BME280;67739;52.986;8.894;2023-08-21T04:35:14;102390.72;;;15.14;72.80
78444;BME280;67739;52.986;8.894;2023-08-21T04:37:43;102395.31;;;15.12;72.73
78444;BME280;67739;52.986;8.894;2023-08-21T04:40:10;102396.25;;;15.11;73.00
78444;BME280;67739;52.986;8.894;2023-08-21T04:42:36;102386.44;;;15.09;72.98
78444;BME280;67739;52.986;8.894;2023-08-21T04:45:01;102390.09;;;15.08;72.88
78444;BME280;67739;52.986;8.894;2023-08-21T04:47:27;102391.97;;;15.06;73.11
78444;BME280;67739;52.986;8.894;2023-08-21T04:49:53;102388.44;;;15.04;72.96
78444;BME280;67739;52.986;8.894;2023-08-21T04:52:19;102393.91;;;15.02;73.24
78444;BME280;67739;52.986;8.894;2023-08-21T04:54:46;102384.03;;;15.01;73.15
78444;BME280;67739;52.986;8.894;2023-08-21T04:57:11;102396.75;;;14.99;73.10
78444;BME280;67739;52.986;8.894;2023-08-21T04:59:37;102376.09;;;14.98;72.97
78444;BME280;67739;52.986;8.894;2023-08-21T05:02:03;102379.78;;;14.96;73.14
78444;BME280;67739;52.986;8.894;2023-08-21T05:04:28;102380.72;;;14.95;73.04
78444;BME280;67739;52.986;8.894;2023-08-21T05:06:54;102389.78;;;14.94;72.85
78444;BME280;67739;52.986;8.894;2023-08-21T05:09:19;102396.19;;;14.91;73.13
78444;BME280;67739;52.986;8.894;2023-08-21T05:11:44;102396.25;;;14.90;72.97
78444;BME280;67739;52.986;8.894;2023-08-21T05:14:09;102404.41;;;14.88;72.99
78444;BME280;67739;52.986;8.894;2023-08-21T05:16:35;102407.09;;;14.88;73.02
78444;BME280;67739;52.986;8.894;2023-08-21T05:19:01;102404.56;;;14.85;72.90
78444;BME280;67739;52.986;8.894;2023-08-21T05:21:27;102400.97;;;14.84;73.01
78444;BME280;67739;52.986;8.894;2023-08-21T05:23:52;102400.09;;;14.84;73.33
78444;BME280;67739;52.986;8.894;2023-08-21T05:26:19;102397.38;;;14.84;73.09
78444;BME280;67739;52.986;8.894;2023-08-21T05:28:44;102406.50;;;14.81;73.25
78444;BME280;67739;52.986;8.894;2023-08-21T05:31:10;102402.91;;;14.81;73.31
78444;BME280;67739;52.986;8.894;2023-08-21T05:33:35;102407.38;;;14.82;73.25
78444;BME280;67739;52.986;8.894;2023-08-21T05:36:00;102410.97;;;14.82;73.61
78444;BME280;67739;52.986;8.894;2023-08-21T05:38:26;102418.13;;;14.83;73.34
78444;BME280;67739;52.986;8.894;2023-08-21T05:40:51;102407.25;;;14.85;73.46
78444;BME280;67739;52.986;8.894;2023-08-21T05:43:16;102409.81;;;14.88;73.78
78444;BME280;67739;52.986;8.894;2023-08-21T05:45:42;102413.28;;;14.92;73.88
78444;BME280;67739;52.986;8.894;2023-08-21T05:48:07;102411.34;;;14.95;74.19
78444;BME280;67739;52.986;8.894;2023-08-21T05:50:33;102414.81;;;14.99;74.39
78444;BME280;67739;52.986;8.894;2023-08-21T05:52:58;102419.13;;;15.03;74.57
78444;BME280;67739;52.986;8.894;2023-08-21T05:55:26;102425.28;;;15.06;74.91
78444;BME280;67739;52.986;8.894;2023-08-21T05:57:52;102416.19;;;15.09;74.54
78444;BME280;67739;52.986;8.894;2023-08-21T06:00:17;102412.41;;;15.13;75.00
78444;BME280;67739;52.986;8.894;2023-08-21T06:02:42;102418.50;;;15.18;75.10
78444;BME280;67739;52.986;8.894;2023-08-21T06:05:08;102417.47;;;15.20;74.93
78444;BME280;67739;52.986;8.894;2023-08-21T06:07:34;102416.44;;;15.25;74.78
78444;BME280;67739;52.986;8.894;2023-08-21T06:09:59;102420.78;;;15.29;75.22
78444;BME280;67739;52.986;8.894;2023-08-21T06:12:24;102420.50;;;15.35;75.17
78444;BME280;67739;52.986;8.894;2023-08-21T06:14:50;102426.59;;;15.40;75.08
78444;BME280;67739;52.986;8.894;2023-08-21T06:17:15;102426.38;;;15.44;75.21
78444;BME280;67739;52.986;8.894;2023-08-21T06:19:41;102424.31;;;15.51;75.24
78444;BME280;67739;52.986;8.894;2023-08-21T06:22:07;102428.69;;;15.55;75.50
78444;BME280;67739;52.986;8.894;2023-08-21T06:24:32;102431.25;;;15.58;75.40
78444;BME280;67739;52.986;8.894;2023-08-21T06:26:57;102429.22;;;15.63;75.57
78444;BME280;67739;52.986;8.894;2023-08-21T06:29:23;102433.56;;;15.67;75.50
78444;BME280;67739;52.986;8.894;2023-08-21T06:31:49;102433.38;;;15.72;75.64
78444;BME280;67739;52.986;8.894;2023-08-21T06:34:15;102424.09;;;15.77;75.96
78444;BME280;67739;52.986;8.894;2023-08-21T06:36:40;102428.38;;;15.83;75.87
78444;BME280;67739;52.986;8.894;2023-08-21T06:39:05;102424.47;;;15.88;76.09
78444;BME280;67739;52.986;8.894;2023-08-21T06:41:31;102429.69;;;15.93;76.31
78444;BME280;67739;52.986;8.894;2023-08-21T06:43:57;102425.84;;;15.99;76.34
78444;BME280;67739;52.986;8.894;2023-08-21T06:46:22;102425.56;;;16.05;76.60
78444;BME280;67739;52.986;8.894;2023-08-21T06:48:48;102433.47;;;16.09;76.66
78444;BME280;67739;52.986;8.894;2023-08-21T06:51:15;102433.22;;;16.15;76.64
78444;BME280;67739;52.986;8.894;2023-08-21T06:53:40;102426.50;;;16.24;77.02
78444;BME280;67739;52.986;8.894;2023-08-21T06:56:06;102427.06;;;16.31;77.23
78444;BME280;67739;52.986;8.894;2023-08-21T06:58:32;102434.94;;;16.37;77.10
78444;BME280;67739;52.986;8.894;2023-08-21T07:00:57;102432.91;;;16.42;77.52
78444;BME280;67739;52.986;8.894;2023-08-21T07:03:23;102438.88;;;16.48;77.22
78444;BME280;67739;52.986;8.894;2023-08-21T07:05:57;102440.38;;;16.55;77.67
78444;BME280;67739;52.986;8.894;2023-08-21T07:08:23;102441.91;;;16.61;77.49
78444;BME280;67739;52.986;8.894;2023-08-21T07:10:49;102443.50;;;16.67;77.56
78444;BME280;67739;52.986;8.894;2023-08-21T07:13:14;102442.22;;;16.74;77.70
78444;BME280;67739;52.986;8.894;2023-08-21T07:15:39;102442.75;;;16.82;77.75
78444;BME280;67739;52.986;8.894;2023-08-21T07:18:05;102441.44;;;16.90;77.86
78444;BME280;67739;52.986;8.894;2023-08-21T07:20:30;102448.25;;;16.99;78.00
78444;BME280;67739;52.986;8.894;2023-08-21T07:22:55;102451.44;;;17.07;77.84
78444;BME280;67739;52.986;8.894;2023-08-21T07:25:21;102443.91;;;17.14;77.72
78444;BME280;67739;52.986;8.894;2023-08-21T07:27:46;102451.66;;;17.21;77.59
78444;BME280;67739;52.986;8.894;2023-08-21T07:30:12;102458.47;;;17.30;77.89
78444;BME280;67739;52.986;8.894;2023-08-21T07:32:37;102450.75;;;17.40;77.80
78444;BME280;67739;52.986;8.894;2023-08-21T07:35:02;102460.31;;;17.47;77.39
78444;BME280;67739;52.986;8.894;2023-08-21T07:37:28;102457.97;;;17.58;77.53
78444;BME280;67739;52.986;8.894;2023-08-21T07:39:53;102455.59;;;17.69;77.66
78444;BME280;67739;52.986;8.894;2023-08-21T07:42:22;102464.94;;;17.81;77.71
78444;BME280;67739;52.986;8.894;2023-08-21T07:44:47;102459.00;;;17.90;77.16
78444;BME280;67739;52.986;8.894;2023-08-21T07:47:12;102463.03;;;18.00;77.03
78444;BME280;67739;52.986;8.894;2023-08-21T07:49:38;102465.16;;;18.11;77.02
78444;BME280;67739;52.986;8.894;2023-08-21T07:52:03;102463.72;;;18.21;76.87
78444;BME280;67739;52.986;8.894;2023-08-21T07:54:29;102471.19;;;18.33;76.72
78444;BME280;67739;52.986;8.894;2023-08-21T07:56:54;102469.59;;;18.46;77.02
78444;BME280;67739;52.986;8.894;2023-08-21T07:59:20;102459.88;;;18.58;76.49
78444;BME280;67739;52.986;8.894;2023-08-21T08:01:45;102468.34;;;18.69;76.47
78444;BME280;67739;52.986;8.894;2023-08-21T08:04:11;102469.41;;;18.82;76.71
78444;BME280;67739;52.986;8.894;2023-08-21T08:06:36;102451.53;;;18.94;75.97
78444;BME280;67739;52.986;8.894;2023-08-21T08:09:02;102455.38;;;19.05;76.04
78444;BME280;67739;52.986;8.894;2023-08-21T08:11:29;102459.25;;;19.17;75.45
78444;BME280;67739;52.986;8.894;2023-08-21T08:13:55;102452.22;;;19.29;74.93
78444;BME280;67739;52.986;8.894;2023-08-21T08:16:20;102461.41;;;19.42;74.61
78444;BME280;67739;52.986;8.894;2023-08-21T08:18:46;102450.72;;;19.55;74.39
78444;BME280;67739;52.986;8.894;2023-08-21T08:21:11;102440.94;;;19.66;73.80
78444;BME280;67739;52.986;8.894;2023-08-21T08:23:37;102448.34;;;19.78;73.30
78444;BME280;67739;52.986;8.894;2023-08-21T08:26:02;102444.03;;;19.90;73.20
78444;BME280;67739;52.986;8.894;2023-08-21T08:28:28;102441.44;;;20.03;72.99
78444;BME280;67739;52.986;8.894;2023-08-21T08:30:53;102453.31;;;20.16;72.51
78444;BME280;67739;52.986;8.894;2023-08-21T08:33:19;102438.03;;;20.28;72.04
78444;BME280;67739;52.986;8.894;2023-08-21T08:35:45;102447.22;;;20.41;71.63
78444;BME280;67739;52.986;8.894;2023-08-21T08:38:10;102438.25;;;20.53;71.01
78444;BME280;67739;52.986;8.894;2023-08-21T08:40:41;102444.69;;;20.66;70.63
78444;BME280;67739;52.986;8.894;2023-08-21T08:43:08;102441.94;;;20.80;70.13
78444;BME280;67739;52.986;8.894;2023-08-21T08:45:34;102459.25;;;20.94;69.68
78444;BME280;67739;52.986;8.894;2023-08-21T08:48:00;102439.25;;;21.07;69.60
78444;BME280;67739;52.986;8.894;2023-08-21T08:50:29;102441.88;;;21.23;69.15
78444;BME280;67739;52.986;8.894;2023-08-21T08:52:56;102447.28;;;21.37;68.98
78444;BME280;67739;52.986;8.894;2023-08-21T08:55:22;102450.81;;;21.52;68.88
78444;BME280;67739;52.986;8.894;2023-08-21T08:57:47;102452.50;;;21.67;68.21
78444;BME280;67739;52.986;8.894;2023-08-21T09:00:13;102447.06;;;21.80;67.78
78444;BME280;67739;52.986;8.894;2023-08-21T09:02:39;102437.81;;;21.95;67.48
78444;BME280;67739;52.986;8.894;2023-08-21T09:05:04;102436.75;;;22.10;67.20
78444;BME280;67739;52.986;8.894;2023-08-21T09:07:30;102429.34;;;22.25;66.95
78444;BME280;67739;52.986;8.894;2023-08-21T09:09:55;102432.81;;;22.40;66.33
78444;BME280;67739;52.986;8.894;2023-08-21T09:12:21;102422.75;;;22.53;66.18
78444;BME280;67739;52.986;8.894;2023-08-21T09:14:47;102427.22;;;22.67;65.74
78444;BME280;67739;52.986;8.894;2023-08-21T09:17:13;102426.13;;;22.82;65.33
78444;BME280;67739;52.986;8.894;2023-08-21T09:19:39;102425.09;;;22.96;64.93
78444;BME280;67739;52.986;8.894;2023-08-21T09:22:12;102421.22;;;23.11;64.71
78444;BME280;67739;52.986;8.894;2023-08-21T09:24:38;102419.28;;;23.24;64.60
78444;BME280;67739;52.986;8.894;2023-08-21T09:27:05;102420.13;;;23.37;63.81
78444;BME280;67739;52.986;8.894;2023-08-21T09:29:38;102420.81;;;23.52;63.88
78444;BME280;67739;52.986;8.894;2023-08-21T09:32:06;102419.03;;;23.64;63.42
78444;BME280;67739;52.986;8.894;2023-08-21T09:34:37;102419.94;;;23.75;62.77
78444;BME280;67739;52.986;8.894;2023-08-21T09:37:06;102408.88;;;23.88;62.76
78444;BME280;67739;52.986;8.894;2023-08-21T09:39:36;102402.41;;;24.00;62.38
78444;BME280;67739;52.986;8.894;2023-08-21T09:42:08;102406.91;;;24.12;62.15
78444;BME280;67739;52.986;8.894;2023-08-21T09:44:37;102412.56;;;24.22;61.95
78444;BME280;67739;52.986;8.894;2023-08-21T09:47:04;102411.72;;;24.33;62.01
78444;BME280;67739;52.986;8.894;2023-08-21T09:49:30;102404.47;;;24.43;61.78
78444;BME280;67739;52.986;8.894;2023-08-21T09:51:57;102411.97;;;24.52;61.69
78444;BME280;67739;52.986;8.894;2023-08-21T09:54:23;102412.97;;;24.62;61.59
78444;BME280;67739;52.986;8.894;2023-08-21T09:56:48;102403.09;;;24.71;61.30
78444;BME280;67739;52.986;8.894;2023-08-21T09:59:14;102412.47;;;24.79;61.34
78444;BME280;67739;52.986;8.894;2023-08-21T10:01:40;102411.81;;;24.87;61.12
78444;BME280;67739;52.986;8.894;2023-08-21T10:04:08;102412.69;;;24.98;61.08
78444;BME280;67739;52.986;8.894;2023-08-21T10:06:34;102405.69;;;25.06;60.96
78444;BME280;67739;52.986;8.894;2023-08-21T10:09:02;102403.16;;;25.14;60.95
78444;BME280;67739;52.986;8.894;2023-08-21T10:11:27;102401.41;;;25.24;60.78
78444;BME280;67739;52.986;8.894;2023-08-21T10:13:53;102410.72;;;25.32;60.83
78444;BME280;67739;52.986;8.894;2023-08-21T10:16:19;102410.06;;;25.40;60.73
78444;BME280;67739;52.986;8.894;2023-08-21T10:18:46;102406.81;;;25.46;60.38
78444;BME280;67739;52.986;8.894;2023-08-21T10:21:14;102411.50;;;25.55;60.67
78444;BME280;67739;52.986;8.894;2023-08-21T10:23:40;102409.88;;;25.64;60.79
78444;BME280;67739;52.986;8.894;2023-08-21T10:26:07;102399.97;;;25.73;60.90
78444;BME280;67739;52.986;8.894;2023-08-21T10:28:59;102400.19;;;25.81;60.92
78444;BME280;67739;52.986;8.894;2023-08-21T10:33:55;102390.16;;;26.00;60.81
78444;BME280;67739;52.986;8.894;2023-08-21T10:36:37;102391.97;;;26.11;61.21
78444;BME280;67739;52.986;8.894;2023-08-21T10:39:03;102399.41;;;26.20;61.22
78444;BME280;67739;52.986;8.894;2023-08-21T10:41:29;102394.97;;;26.29;61.15
78444;BME280;67739;52.986;8.894;2023-08-21T10:43:55;102389.53;;;26.38;61.53
78444;BME280;67739;52.986;8.894;2023-08-21T10:46:20;102387.84;;;26.47;61.83
78444;BME280;67739;52.986;8.894;2023-08-21T10:48:46;102393.38;;;26.57;61.96
78444;BME280;67739;52.986;8.894;2023-08-21T10:51:11;102395.31;;;26.66;61.92
78444;BME280;67739;52.986;8.894;2023-08-21T10:53:38;102388.94;;;26.75;61.98
78444;BME280;67739;52.986;8.894;2023-08-21T10:56:05;102381.88;;;26.82;61.86
78444;BME280;67739;52.986;8.894;2023-08-21T10:58:37;102389.28;;;26.91;62.24
78444;BME280;67739;52.986;8.894;2023-08-21T11:01:03;102385.84;;;26.99;62.24
78444;BME280;67739;52.986;8.894;2023-08-21T11:03:28;102388.63;;;27.08;62.64
78444;BME280;67739;52.986;8.894;2023-08-21T11:06:01;102382.25;;;27.18;62.41
78444;BME280;67739;52.986;8.894;2023-08-21T11:08:28;102380.53;;;27.26;62.44
78444;BME280;67739;52.986;8.894;2023-08-21T11:10:53;102378.63;;;27.36;62.50
78444;BME280;67739;52.986;8.894;2023-08-21T11:13:19;102389.66;;;27.46;62.91
78444;BME280;67739;52.986;8.894;2023-08-21T11:15:46;102383.16;;;27.57;62.08
78444;BME280;67739;52.986;8.894;2023-08-21T11:18:12;102388.81;;;27.65;62.07
78444;BME280;67739;52.986;8.894;2023-08-21T11:20:37;102388.50;;;27.77;62.32
78444;BME280;67739;52.986;8.894;2023-08-21T11:23:06;102387.31;;;27.90;62.51
78444;BME280;67739;52.986;8.894;2023-08-21T11:25:32;102385.13;;;28.03;62.00
78444;BME280;67739;52.986;8.894;2023-08-21T11:27:59;102385.66;;;28.16;62.41
78444;BME280;67739;52.986;8.894;2023-08-21T11:30:27;102389.84;;;28.30;62.67
78444;BME280;67739;52.986;8.894;2023-08-21T11:33:13;102388.19;;;28.46;63.08
78444;BME280;67739;52.986;8.894;2023-08-21T11:35:39;102384.94;;;28.61;63.04
78444;BME280;67739;52.986;8.894;2023-08-21T11:38:05;102380.78;;;28.74;63.48
78444;BME280;67739;52.986;8.894;2023-08-21T11:40:34;102373.75;;;28.90;63.38
78444;BME280;67739;52.986;8.894;2023-08-21T11:43:03;102375.97;;;29.04;63.53
78444;BME280;67739;52.986;8.894;2023-08-21T11:45:30;102377.34;;;29.17;63.71
78444;BME280;67739;52.986;8.894;2023-08-21T11:47:56;102380.25;;;29.34;63.85
78444;BME280;67739;52.986;8.894;2023-08-21T11:50:21;102374.22;;;29.48;64.32
78444;BME280;67739;52.986;8.894;2023-08-21T11:52:47;102375.53;;;29.62;64.58
78444;BME280;67739;52.986;8.894;2023-08-21T11:55:12;102369.59;;;29.74;64.45
78444;BME280;67739;52.986;8.894;2023-08-21T11:57:49;102370.91;;;29.88;65.04
78444;BME280;67739;52.986;8.894;2023-08-21T12:00:15;102377.09;;;30.00;65.05
78444;BME280;67739;52.986;8.894;2023-08-21T12:02:53;102374.75;;;30.13;64.96
78444;BME280;67739;52.986;8.894;2023-08-21T12:05:20;102374.31;;;30.26;64.68
78444;BME280;67739;52.986;8.894;2023-08-21T12:07:45;102377.66;;;30.37;65.04
78444;BME280;67739;52.986;8.894;2023-08-21T12:10:11;102376.31;;;30.49;65.15
78444;BME280;67739;52.986;8.894;2023-08-21T12:12:36;102382.28;;;30.63;65.44
78444;BME280;67739;52.986;8.894;2023-08-21T12:15:01;102381.81;;;30.75;65.74
78444;BME280;67739;52.986;8.894;2023-08-21T12:17:27;102377.75;;;30.87;65.71
78444;BME280;67739;52.986;8.894;2023-08-21T12:19:52;102377.25;;;31.00;65.94
78444;BME280;67739;52.986;8.894;2023-08-21T12:22:17;102366.56;;;31.13;66.13
78444;BME280;67739;52.986;8.894;2023-08-21T12:24:43;102364.31;;;31.25;66.59
78444;BME280;67739;52.986;8.894;2023-08-21T12:27:08;102365.72;;;31.37;66.88
78444;BME280;67739;52.986;8.894;2023-08-21T12:29:34;102367.97;;;31.50;66.69
78444;BME280;67739;52.986;8.894;2023-08-21T12:31:59;102367.44;;;31.62;67.16
78444;BME280;67739;52.986;8.894;2023-08-21T12:34:25;102361.59;;;31.74;67.10
78444;BME280;67739;52.986;8.894;2023-08-21T12:36:50;102366.78;;;31.85;67.61
78444;BME280;67739;52.986;8.894;2023-08-21T12:39:16;102360.19;;;31.94;67.37
78444;BME280;67739;52.986;8.894;2023-08-21T12:41:42;102352.72;;;32.03;67.61
78444;BME280;67739;52.986;8.894;2023-08-21T12:44:08;102358.25;;;32.11;67.54
78444;BME280;67739;52.986;8.894;2023-08-21T12:46:37;102361.88;;;32.19;67.84
78444;BME280;67739;52.986;8.894;2023-08-21T12:49:03;102361.19;;;32.25;67.73